Pagrindinis puslapis
METAR-TAF:

METAR-TAF

Oro uostai :

Gran Kanarija, Ispanija

platuma: 27-56N, ilguma: 015-23W, Aukštis: 23 m

Dabartinis oras

Ataskaita buvo paskelbta 25 minutes, ne 22:00 UTC
Vėjas 9 kt iš Šiaurės/Šiaurės Rytų
Temperatūra 21°C
Drėgmė 73%
Slėgis 1013 hPa
Matomumas 10 km arba daugiau
Mažai debesys ne aukštis 2500 ft

METAR: GCLP 302200Z 03009KT 9999 FEW025 21/16 Q1013 NOSIG

Laikas: 23:25 (22:25 UTC)

Prognozė

Ataskaita buvo paskelbta 2 valandos ir 25 minutes, ne 20:00 UTC
Prognozė galioja nuo 30 metu 21 UTC su 31 metu 21 UTC
Vėjas 15 kt iš Šiaurės
Matomumas 10 km arba daugiau
Išsisklaidę debesys ne aukštis 3500 ft
Laikinai
nuo 31 metu 00 UTC su 31 metu 08 UTC
Vėjas 5 kt iš Vakarų/Šiaurės Vakarų

TAF: GCLP 302000Z 3021/3121 01015KT 9999 SCT035 TX25/3114Z TN20/3106Z TEMPO 3100/3108 30005KT

Orai ataskaitas ir orų prognozės (METAR, TAF).

turimą stotys yra geltonos ir raudonos taškus žemėlapyje.

Perkelti pele per norėdami pamatyti stoties vardą.

Tada spustelėkite, norėdami matyti oro stebėjimo ir prognozės.

Norėdami pakeisti žemėlapį: spustelėkite ant žalios mygtukų su juodo kryžiaus žemyn,; žalią mygtuką su brūkšneliu, jei norite nutolinti; arba žalių rodyklių gretimoms žemėlapius.


METAR-TAF: